createdAt,value
2023-02-16T00:00:20.042Z,18.39
2023-02-16T00:01:19.546Z,18.20
2023-02-16T00:02:20.127Z,18.5
2023-02-16T00:03:19.627Z,17.60
2023-02-16T00:04:19.757Z,18
2023-02-16T00:05:19.962Z,17
2023-02-16T00:06:19.895Z,18.20
2023-02-16T00:07:19.822Z,20.79
2023-02-16T00:08:19.317Z,17.89
2023-02-16T00:09:19.136Z,18.70
2023-02-16T00:10:19.847Z,18
2023-02-16T00:11:20.178Z,18.5
2023-02-16T00:12:19.711Z,18.10
2023-02-16T00:13:19.430Z,18.89
2023-02-16T00:14:19.643Z,18.29
2023-02-16T00:15:20.209Z,17.20
2023-02-16T00:16:19.531Z,16.89
2023-02-16T00:17:19.160Z,17.5
2023-02-16T00:18:19.815Z,16.79
2023-02-16T00:19:18.936Z,16.29
2023-02-16T00:20:20.197Z,17
2023-02-16T00:22:19.050Z,18
2023-02-16T00:23:19.009Z,16.89
2023-02-16T00:24:19.762Z,16.70
2023-02-16T00:25:19.298Z,15.89
2023-02-16T00:26:19.374Z,15.69
2023-02-16T00:27:19.427Z,16.5
2023-02-16T00:28:19.040Z,16.70
2023-02-16T00:29:19.096Z,15.69
2023-02-16T00:30:20.318Z,15.89
2023-02-16T00:31:20.115Z,15.30
2023-02-16T00:32:19.732Z,15.5
2023-02-16T00:33:19.429Z,15.30
2023-02-16T00:35:19.585Z,16.20
2023-02-16T00:36:19.736Z,15.80
2023-02-16T00:37:19.386Z,14.69
2023-02-16T00:38:19.479Z,14.19
2023-02-16T00:39:20.242Z,14.30
2023-02-16T00:40:19.695Z,15
2023-02-16T00:41:19.401Z,14.30
2023-02-16T00:42:19.518Z,14.19
2023-02-16T00:43:19.122Z,15.39
2023-02-16T00:44:19.273Z,14.30
2023-02-16T00:46:19.567Z,14.5
2023-02-16T00:47:20.007Z,14.30
2023-02-16T00:48:19.364Z,13.80
2023-02-16T00:49:19.095Z,13.39
2023-02-16T00:50:19.824Z,13.69
2023-02-16T00:51:25.810Z,14.5
2023-02-16T00:52:19.921Z,14.19
2023-02-16T00:53:19.115Z,14.10
2023-02-16T00:54:19.998Z,13.89
2023-02-16T00:55:19.130Z,13.60
2023-02-16T00:56:19.573Z,14.10
2023-02-16T00:57:19.414Z,13.60
2023-02-16T00:58:19.784Z,14.19
2023-02-16T00:59:19.113Z,13.5
2023-02-16T01:00:21.114Z,13.69
2023-02-16T01:01:22.060Z,13.5
2023-02-16T01:02:19.279Z,13.39
2023-02-16T01:03:19.425Z,15.19
2023-02-16T01:04:19.162Z,14.5
2023-02-16T01:05:19.491Z,14.89
2023-02-16T01:06:19.129Z,14
2023-02-16T01:07:20.379Z,13.89
2023-02-16T01:08:19.883Z,14
2023-02-16T01:10:20.262Z,13.80
2023-02-16T01:11:19.375Z,14.19
2023-02-16T01:12:19.259Z,14.30
2023-02-16T01:13:19.298Z,13.10
2023-02-16T01:14:19.080Z,14.10
2023-02-16T01:15:19.460Z,13.39
2023-02-16T01:16:19.354Z,13.19
2023-02-16T01:17:19.108Z,13.80
2023-02-16T01:18:19.941Z,12.89
2023-02-16T01:19:19.000Z,13.69
2023-02-16T01:20:19.754Z,13.80
2023-02-16T01:21:19.373Z,13.60
2023-02-16T01:22:18.976Z,13.30
2023-02-16T01:23:19.072Z,12.60
2023-02-16T01:24:19.569Z,12.80
2023-02-16T01:25:19.086Z,12.39
2023-02-16T01:26:19.507Z,14.30
2023-02-16T01:27:19.469Z,13.80
2023-02-16T01:28:19.083Z,13
2023-02-16T01:29:19.852Z,13.5
2023-02-16T01:30:19.630Z,13.10
2023-02-16T01:31:19.467Z,14.10
2023-02-16T01:32:19.674Z,12.89
2023-02-16T01:33:18.898Z,12.69
2023-02-16T01:34:19.358Z,12.39
2023-02-16T01:35:20.281Z,13
2023-02-16T01:36:19.547Z,12.89
2023-02-16T01:37:18.960Z,12.80
2023-02-16T01:38:19.256Z,13.10
2023-02-16T01:40:19.475Z,12.80
2023-02-16T01:41:19.672Z,13.5
2023-02-16T01:43:19.903Z,12.69
2023-02-16T01:44:20.120Z,12.80
2023-02-16T01:45:20.132Z,13
2023-02-16T01:47:19.266Z,12.60
2023-02-16T01:48:19.229Z,13.30
2023-02-16T01:49:19.368Z,12.19
2023-02-16T01:50:19.723Z,12.80
2023-02-16T01:52:19.201Z,12.89
2023-02-16T01:53:19.365Z,12.69
2023-02-16T01:54:19.367Z,12.89
2023-02-16T01:55:19.574Z,12.10
2023-02-16T01:56:18.800Z,13.39
2023-02-16T01:57:19.173Z,12.80
2023-02-16T01:58:19.146Z,12.69
2023-02-16T01:59:19.050Z,12.89
2023-02-16T02:00:20.742Z,12.39
2023-02-16T02:02:19.563Z,12.69
2023-02-16T02:03:19.440Z,12
2023-02-16T02:04:20.359Z,12.39
2023-02-16T02:05:19.379Z,12.30
2023-02-16T02:06:19.285Z,11.89
2023-02-16T02:07:19.325Z,12.19
2023-02-16T02:08:19.202Z,12.5
2023-02-16T02:09:19.365Z,12.69
2023-02-16T02:10:19.865Z,13
2023-02-16T02:11:19.340Z,12.5
2023-02-16T02:12:20.049Z,12.30
2023-02-16T02:13:24.526Z,12.89
2023-02-16T02:15:19.456Z,12.30
2023-02-16T02:16:20.875Z,12.80
2023-02-16T02:17:19.663Z,13
2023-02-16T02:18:19.599Z,12.69
2023-02-16T02:19:19.393Z,13.39
2023-02-16T02:20:19.672Z,12.69
2023-02-16T02:21:19.442Z,13
2023-02-16T02:22:19.173Z,12.69
2023-02-16T02:23:27.378Z,12.30
2023-02-16T02:24:19.240Z,12.69
2023-02-16T02:25:20.090Z,12.39
2023-02-16T02:26:19.431Z,12.19
2023-02-16T02:27:18.969Z,12.89
2023-02-16T02:28:19.324Z,13.39
2023-02-16T02:29:19.130Z,12.60
2023-02-16T02:30:20.222Z,13.39
2023-02-16T02:31:20.258Z,12.89
2023-02-16T02:33:19.092Z,13.89
2023-02-16T02:34:19.657Z,13
2023-02-16T02:35:19.466Z,12.69
2023-02-16T02:36:19.522Z,13.80
2023-02-16T02:37:20.025Z,12.69
2023-02-16T02:38:19.856Z,13.30
2023-02-16T02:40:19.835Z,13.19
2023-02-16T02:41:20.023Z,12.89
2023-02-16T02:42:19.312Z,13
2023-02-16T02:43:19.196Z,12.5
2023-02-16T02:46:19.763Z,13.10
2023-02-16T02:48:19.586Z,14
2023-02-16T02:49:19.505Z,13.60
2023-02-16T02:50:19.629Z,13.69
2023-02-16T02:51:19.316Z,13.10
2023-02-16T02:52:19.837Z,13.39
2023-02-16T02:53:19.816Z,13.19
2023-02-16T02:54:19.844Z,13.89
2023-02-16T02:55:20.896Z,12.5
2023-02-16T02:56:19.667Z,13.30
2023-02-16T02:57:19.542Z,12.80
2023-02-16T02:58:19.489Z,12.69
2023-02-16T02:59:19.196Z,13.89
2023-02-16T03:00:20.632Z,13.19
2023-02-16T03:01:19.632Z,13.39
2023-02-16T03:02:19.640Z,13.89
2023-02-16T03:03:19.174Z,13.5
2023-02-16T03:04:19.408Z,13
2023-02-16T03:05:19.483Z,14.5
2023-02-16T03:06:19.428Z,14.39
2023-02-16T03:08:19.269Z,13.69
2023-02-16T03:10:20.065Z,13.30
2023-02-16T03:11:19.439Z,14.19
2023-02-16T03:12:19.515Z,14.10
2023-02-16T03:13:19.585Z,14.5
2023-02-16T03:14:19.265Z,13.80
2023-02-16T03:16:19.157Z,13.30
2023-02-16T03:18:19.372Z,13.69
2023-02-16T03:19:19.229Z,13.5
2023-02-16T03:20:19.838Z,12.89
2023-02-16T03:21:19.491Z,13.89
2023-02-16T03:22:19.349Z,13.39
2023-02-16T03:23:19.684Z,14.19
2023-02-16T03:24:19.263Z,14.5
2023-02-16T03:25:19.142Z,14.39
2023-02-16T03:26:19.328Z,14.19
2023-02-16T03:27:19.267Z,14.30
2023-02-16T03:28:19.976Z,14.39
2023-02-16T03:29:19.287Z,14.89
2023-02-16T03:30:20.129Z,13.80
2023-02-16T03:31:19.839Z,14.19
2023-02-16T03:32:19.982Z,14.39
2023-02-16T03:33:19.280Z,14.69
2023-02-16T03:35:19.770Z,14
2023-02-16T03:36:19.274Z,14.10
2023-02-16T03:37:19.245Z,14.69
2023-02-16T03:39:18.993Z,14.89
2023-02-16T03:40:20.457Z,15.69
2023-02-16T03:41:18.753Z,14.19
2023-02-16T03:42:19.481Z,15.10
2023-02-16T03:43:19.243Z,14.30
2023-02-16T03:44:19.813Z,13.80
2023-02-16T03:45:19.306Z,14.39
2023-02-16T03:46:19.457Z,14.5
2023-02-16T03:47:19.788Z,14.69
2023-02-16T03:48:19.494Z,15.60
2023-02-16T03:49:19.717Z,14
2023-02-16T03:50:19.478Z,14.39
2023-02-16T03:51:19.118Z,14.89
2023-02-16T03:52:19.907Z,14.19
2023-02-16T03:53:19.250Z,14.5
2023-02-16T03:54:19.355Z,14.19
2023-02-16T03:55:19.789Z,14.80
2023-02-16T03:57:19.954Z,13.89
2023-02-16T03:58:19.650Z,14.30
2023-02-16T03:59:19.077Z,14.89
2023-02-16T04:00:20.870Z,14.39
2023-02-16T04:01:19.790Z,15
2023-02-16T04:02:19.931Z,14.5
2023-02-16T04:03:19.956Z,14.80
2023-02-16T04:04:19.589Z,15
2023-02-16T04:05:20.219Z,14.80
2023-02-16T04:06:19.763Z,14
2023-02-16T04:07:20.406Z,14.39
2023-02-16T04:08:19.971Z,16.39
2023-02-16T04:09:20.583Z,16
2023-02-16T04:10:20.281Z,16.20
2023-02-16T04:11:19.622Z,15.5
2023-02-16T04:12:20.410Z,14.5
2023-02-16T04:13:19.779Z,15.19
2023-02-16T04:14:20.443Z,15.30
2023-02-16T04:15:19.928Z,15
2023-02-16T04:16:20.735Z,16.29
2023-02-16T04:17:19.591Z,16.70
2023-02-16T04:18:20.068Z,15.5
2023-02-16T04:20:20.579Z,14.89
2023-02-16T04:21:20.025Z,16.79
2023-02-16T04:22:20.025Z,15.60
2023-02-16T04:23:20.217Z,16.29
2023-02-16T04:24:19.959Z,15.39
2023-02-16T04:25:21.322Z,15
2023-02-16T04:26:19.684Z,14.80
2023-02-16T04:27:20.204Z,15.10
2023-02-16T04:28:19.295Z,15.60
2023-02-16T04:29:19.819Z,15
2023-02-16T04:30:20.560Z,15.30
2023-02-16T04:31:20.154Z,16.39
2023-02-16T04:32:19.468Z,15.69
2023-02-16T04:33:19.560Z,15.80
2023-02-16T04:34:19.012Z,15.30
2023-02-16T04:35:19.605Z,15.39
2023-02-16T04:36:19.560Z,15.30
2023-02-16T04:37:19.301Z,15.10
2023-02-16T04:38:19.759Z,15.80
2023-02-16T04:39:18.816Z,15
2023-02-16T04:41:19.174Z,15.10
2023-02-16T04:42:18.884Z,15.60
2023-02-16T04:43:19.358Z,15.39
2023-02-16T04:44:19.243Z,16.70
2023-02-16T04:45:20.231Z,16.5
2023-02-16T04:46:19.760Z,15.89
2023-02-16T04:47:19.182Z,16.5
2023-02-16T04:48:18.914Z,16.70
2023-02-16T04:49:19.731Z,16.5
2023-02-16T04:50:19.803Z,16.10
2023-02-16T04:51:19.520Z,16.60
2023-02-16T04:52:19.608Z,16
2023-02-16T04:53:19.267Z,16.29
2023-02-16T04:54:19.349Z,15.69
2023-02-16T04:55:19.806Z,17.39
2023-02-16T04:56:19.996Z,15.19
2023-02-16T04:57:19.739Z,15.60
2023-02-16T04:58:18.944Z,16
2023-02-16T04:59:19.446Z,16.29
2023-02-16T05:00:20.261Z,15.39
2023-02-16T05:01:19.070Z,16.10
2023-02-16T05:02:19.189Z,14.89
2023-02-16T05:03:19.144Z,15.89
2023-02-16T05:04:19.491Z,15.10
2023-02-16T05:05:19.594Z,15.60
2023-02-16T05:07:19.185Z,15.80
2023-02-16T05:08:20.905Z,15.89
2023-02-16T05:09:19.387Z,16.10
2023-02-16T05:11:19.377Z,15.39
2023-02-16T05:12:19.392Z,14.69
2023-02-16T05:13:19.246Z,16.5
2023-02-16T05:14:19.311Z,15.60
2023-02-16T05:15:19.963Z,16.5
2023-02-16T05:16:19.647Z,15.89
2023-02-16T05:17:19.509Z,16.10
2023-02-16T05:18:19.211Z,16.29
2023-02-16T05:19:19.020Z,16.10
2023-02-16T05:20:19.845Z,17.10
2023-02-16T05:21:19.311Z,17.70
2023-02-16T05:22:19.247Z,18.60
2023-02-16T05:23:19.033Z,18.89
2023-02-16T05:24:18.886Z,18.10
2023-02-16T05:25:19.280Z,17.70
2023-02-16T05:26:19.272Z,17.89
2023-02-16T05:27:19.419Z,18.20
2023-02-16T05:28:19.521Z,17.20
2023-02-16T05:29:19.359Z,17.39
2023-02-16T05:30:20.144Z,17.89
2023-02-16T05:31:19.113Z,17.70
2023-02-16T05:32:19.470Z,16.79
2023-02-16T05:33:19.602Z,16.20
2023-02-16T05:34:19.569Z,18.70
2023-02-16T05:35:19.765Z,17
2023-02-16T05:37:19.542Z,16.79
2023-02-16T05:38:19.575Z,17
2023-02-16T05:39:19.612Z,16.79
2023-02-16T05:40:19.573Z,17.29
2023-02-16T05:41:19.546Z,16.70
2023-02-16T05:44:19.338Z,17.79
2023-02-16T05:45:20.026Z,18.20
2023-02-16T05:46:19.015Z,17.60
2023-02-16T05:47:19.087Z,17.29
2023-02-16T05:48:19.337Z,18.39
2023-02-16T05:49:19.077Z,17.20
2023-02-16T05:50:19.824Z,16.39
2023-02-16T05:51:19.764Z,17
2023-02-16T05:52:19.444Z,17.10
2023-02-16T05:53:19.667Z,16.20
2023-02-16T05:54:20.073Z,16.70
2023-02-16T05:55:19.789Z,17.70
2023-02-16T05:56:19.642Z,17.39
2023-02-16T05:57:19.662Z,16.79
2023-02-16T05:58:19.695Z,17
2023-02-16T05:59:19.636Z,16.70
2023-02-16T06:00:20.789Z,17.29
2023-02-16T06:01:19.561Z,17.10
2023-02-16T06:02:19.895Z,17.5
2023-02-16T06:03:19.114Z,17
2023-02-16T06:04:19.561Z,17.39
2023-02-16T06:05:20.455Z,18.10
2023-02-16T06:07:19.340Z,16.70
2023-02-16T06:08:19.376Z,17.10
2023-02-16T06:09:19.988Z,17.39
2023-02-16T06:10:19.941Z,16.5
2023-02-16T06:11:19.410Z,16.60
2023-02-16T06:12:19.729Z,16.89
2023-02-16T06:13:20.790Z,18
2023-02-16T06:14:20.774Z,17.20
2023-02-16T06:15:20.152Z,16.60
2023-02-16T06:16:20.682Z,16.39
2023-02-16T06:17:20.882Z,15.89
2023-02-16T06:18:20.013Z,17.20
2023-02-16T06:19:19.989Z,17.70
2023-02-16T06:20:23.937Z,18.10
2023-02-16T06:21:24.062Z,19.29
2023-02-16T06:22:24.176Z,18.70
2023-02-16T06:23:22.893Z,18.10
2023-02-16T06:24:23.577Z,19
2023-02-16T06:25:25.467Z,19.10
2023-02-16T06:26:24.591Z,19.5
2023-02-16T06:27:22.751Z,18.10
2023-02-16T06:28:22.390Z,19.60
2023-02-16T06:29:22.540Z,19.70
2023-02-16T06:30:24.829Z,19.39
2023-02-16T06:31:21.788Z,19.70
2023-02-16T06:32:21.854Z,20.20
2023-02-16T06:33:20.322Z,20.79
2023-02-16T06:34:20.815Z,20.10
2023-02-16T06:35:21.907Z,20.20
2023-02-16T06:36:22.628Z,20.79
2023-02-16T06:37:21.681Z,20.39
2023-02-16T06:38:21.592Z,20.60
2023-02-16T06:39:20.069Z,20.70
2023-02-16T06:40:22.855Z,20.39
2023-02-16T06:41:19.971Z,20.70
2023-02-16T06:42:21.521Z,19.60
2023-02-16T06:43:21.455Z,21.10
2023-02-16T06:44:20.119Z,20.10
2023-02-16T06:45:19.349Z,20.5
2023-02-16T06:46:20.972Z,20.60
2023-02-16T06:47:19.637Z,20.39
2023-02-16T06:48:19.585Z,21.29
2023-02-16T06:49:20.482Z,20.5
2023-02-16T06:50:21.178Z,20.20
2023-02-16T06:51:20.236Z,20.70
2023-02-16T06:52:20.491Z,20.39
2023-02-16T06:53:19.073Z,20
2023-02-16T06:54:19.151Z,19.29
2023-02-16T06:55:21.546Z,20
2023-02-16T06:56:19.837Z,19.89
2023-02-16T06:57:19.841Z,19
2023-02-16T06:58:21.192Z,19.20
2023-02-16T06:59:21.067Z,18.39
2023-02-16T07:00:19.939Z,17.79
2023-02-16T07:01:21.073Z,17.20
2023-02-16T07:02:44.683Z,18.29
2023-02-16T07:03:22.994Z,17.39
2023-02-16T07:05:21.400Z,16.39
2023-02-16T07:06:20.727Z,17.10
2023-02-16T07:08:20.432Z,17.20
2023-02-16T07:09:19.956Z,17
2023-02-16T07:10:20.852Z,17.79
2023-02-16T07:11:21.482Z,18.10
2023-02-16T07:12:20.824Z,17.5
2023-02-16T07:13:22.740Z,17.10
2023-02-16T07:15:21.127Z,17.20
2023-02-16T07:16:20.645Z,18.20
2023-02-16T07:17:20.668Z,17.89
2023-02-16T07:18:20.763Z,17.60
2023-02-16T07:19:20.896Z,18.10
2023-02-16T07:20:22.009Z,18.20
2023-02-16T07:21:21.605Z,17.89
2023-02-16T07:22:21.100Z,17.79
2023-02-16T07:23:21.035Z,18.29
2023-02-16T07:25:21.086Z,18.39
2023-02-16T07:26:21.737Z,18.10
2023-02-16T07:27:20.726Z,18.29
2023-02-16T07:28:21.204Z,18.20
2023-02-16T07:29:20.820Z,18
2023-02-16T07:30:21.340Z,17.79
2023-02-16T07:32:21.388Z,17.39
2023-02-16T07:33:22.790Z,18.29
2023-02-16T07:34:22.018Z,17.89
2023-02-16T07:35:22.164Z,17.29
2023-02-16T07:36:21.957Z,18.20
2023-02-16T07:37:23.117Z,17.39
2023-02-16T07:38:28.171Z,18
2023-02-16T07:39:22.266Z,18.29
2023-02-16T07:41:22.800Z,17.70
2023-02-16T07:42:21.185Z,17.60
2023-02-16T07:43:21.372Z,17.70
2023-02-16T07:44:21.502Z,17.39
2023-02-16T07:45:21.148Z,16.39
2023-02-16T07:46:21.522Z,17.10
2023-02-16T07:47:21.406Z,17.20
2023-02-16T07:49:21.548Z,17.5
2023-02-16T07:50:21.346Z,17.29
2023-02-16T07:51:21.460Z,17.5
2023-02-16T07:52:21.951Z,17.89
2023-02-16T07:53:21.657Z,18.20
2023-02-16T07:54:21.072Z,17.60
2023-02-16T07:55:21.736Z,16.79
2023-02-16T07:56:21.711Z,17.5
2023-02-16T07:57:21.333Z,17.79
2023-02-16T07:58:21.435Z,18.20
2023-02-16T07:59:21.465Z,18.39
2023-02-16T08:00:22.457Z,17
2023-02-16T08:01:21.879Z,17.20
2023-02-16T08:02:22.227Z,16.79
2023-02-16T08:03:23.170Z,17.60
2023-02-16T08:04:21.697Z,16.89
2023-02-16T08:05:21.374Z,17.70
2023-02-16T08:06:21.377Z,17.39
2023-02-16T08:07:21.920Z,18.39
2023-02-16T08:08:21.588Z,17.60
2023-02-16T08:09:21.240Z,17.79
2023-02-16T08:10:21.966Z,17.89
2023-02-16T08:11:21.412Z,18.20
2023-02-16T08:12:21.379Z,17.79
2023-02-16T08:13:21.273Z,18.5
2023-02-16T08:14:24.230Z,17.60
2023-02-16T08:15:21.552Z,18.70
2023-02-16T08:16:20.175Z,18.5
2023-02-16T08:17:21.679Z,18.20
2023-02-16T08:18:22.122Z,18.79
2023-02-16T08:20:23.785Z,17.79
2023-02-16T08:21:20.886Z,18.10
2023-02-16T08:22:21.616Z,18.29
2023-02-16T08:23:21.574Z,18.39
2023-02-16T08:24:20.610Z,18.79
2023-02-16T08:25:21.593Z,18.5
2023-02-16T08:26:21.408Z,19.10
2023-02-16T08:27:20.944Z,18.29
2023-02-16T08:28:22.522Z,18.39
2023-02-16T08:29:21.417Z,18.10
2023-02-16T08:30:21.399Z,18.70
2023-02-16T08:31:20.381Z,18.39
2023-02-16T08:32:20.431Z,18
2023-02-16T08:33:20.804Z,18.10
2023-02-16T08:34:21.465Z,17
2023-02-16T08:35:20.906Z,18.5
2023-02-16T08:36:21.213Z,18.20
2023-02-16T08:37:20.656Z,17.79
2023-02-16T08:39:21.367Z,18
2023-02-16T08:40:21.529Z,18.10
2023-02-16T08:41:21.033Z,17.60
2023-02-16T08:43:20.649Z,17.89
2023-02-16T08:44:21.294Z,17.10
2023-02-16T08:45:21.068Z,17.29
2023-02-16T08:46:21.850Z,16.10
2023-02-16T08:47:21.088Z,17.5
2023-02-16T08:48:21.802Z,17.60
2023-02-16T08:49:20.199Z,16.89
2023-02-16T08:50:21.400Z,17.70
2023-02-16T08:51:21.088Z,17.10
2023-02-16T08:52:21.175Z,16.39
2023-02-16T08:53:21.407Z,16.60
2023-02-16T08:54:21.080Z,16.70
2023-02-16T08:55:21.269Z,17.29
2023-02-16T08:56:20.977Z,15.69
2023-02-16T08:57:20.955Z,16.20
2023-02-16T08:58:21.071Z,15.80
2023-02-16T08:59:21.501Z,16.70
2023-02-16T09:00:22.576Z,16.39
2023-02-16T09:01:21.192Z,16.89
2023-02-16T09:02:20.958Z,16.5
2023-02-16T09:03:21.627Z,16.89
2023-02-16T09:04:21.010Z,16.29
2023-02-16T09:05:21.411Z,16.39
2023-02-16T09:06:21.253Z,16.70
2023-02-16T09:08:21.387Z,16.60
2023-02-16T09:09:20.968Z,16.70
2023-02-16T09:10:21.043Z,16.89
2023-02-16T09:11:20.974Z,17.89
2023-02-16T09:12:21.301Z,16.89
2023-02-16T09:13:21.372Z,17.20
2023-02-16T09:14:20.973Z,16.70
2023-02-16T09:15:21.269Z,17.20
2023-02-16T09:16:20.979Z,16.60
2023-02-16T09:17:20.644Z,17.89
2023-02-16T09:18:20.946Z,16.20
2023-02-16T09:19:21.049Z,16.89
2023-02-16T09:20:22.088Z,16.79
2023-02-16T09:22:21.531Z,16.89
2023-02-16T09:23:21.417Z,17.5
2023-02-16T09:24:21.851Z,17.79
2023-02-16T09:25:21.960Z,17.20
2023-02-16T09:26:22.186Z,17.29
2023-02-16T09:27:20.720Z,16.60
2023-02-16T09:28:21.293Z,17
2023-02-16T09:29:21.511Z,16.70
2023-02-16T09:30:21.830Z,16.89
2023-02-16T09:32:21.835Z,16.79
2023-02-16T09:33:22.443Z,16.5
2023-02-16T09:34:22.208Z,16.79
2023-02-16T09:35:21.967Z,16.10
2023-02-16T09:36:22.423Z,16.20
2023-02-16T09:37:21.900Z,16
2023-02-16T09:38:26.650Z,15.60
2023-02-16T09:39:21.237Z,15.69
2023-02-16T09:41:22.178Z,15.30
2023-02-16T09:42:30.084Z,15.39
2023-02-16T09:43:21.290Z,14.5
2023-02-16T09:44:22.128Z,14.69
2023-02-16T09:45:21.466Z,15.39
2023-02-16T09:46:22.707Z,15.60
2023-02-16T09:47:21.402Z,15.10
2023-02-16T09:48:22.027Z,15.80
2023-02-16T09:49:21.790Z,15.39
2023-02-16T09:50:38.615Z,15.30
2023-02-16T09:51:33.918Z,16.60
2023-02-16T09:52:21.144Z,15.60
2023-02-16T09:53:22.081Z,14.89
2023-02-16T09:54:22.231Z,15.30
2023-02-16T09:55:21.936Z,15.39
2023-02-16T09:56:21.956Z,15.5
2023-02-16T09:57:21.898Z,15
2023-02-16T09:58:22.284Z,14.89
2023-02-16T09:59:22.615Z,15.19
2023-02-16T10:00:25.207Z,15.30
2023-02-16T10:01:21.932Z,14.19
2023-02-16T10:02:21.151Z,15.60
2023-02-16T10:03:22.063Z,15.80
2023-02-16T10:04:21.825Z,15.19
2023-02-16T10:05:21.559Z,15
2023-02-16T10:06:21.218Z,14.69
2023-02-16T10:07:21.173Z,14.30
2023-02-16T10:08:21.310Z,14.5
2023-02-16T10:09:21.877Z,14.69
2023-02-16T10:10:21.798Z,14.5
2023-02-16T10:11:22.075Z,14.30
2023-02-16T10:12:21.820Z,14.89
2023-02-16T10:13:21.492Z,14.19
2023-02-16T10:14:21.176Z,13.19
2023-02-16T10:15:21.892Z,13.69
2023-02-16T10:16:22.238Z,14.30
2023-02-16T10:17:20.840Z,15.10
2023-02-16T10:18:21.554Z,14.39
2023-02-16T10:19:21.172Z,14.19
2023-02-16T10:20:21.639Z,13.80
2023-02-16T10:21:21.384Z,13.60
2023-02-16T10:22:20.753Z,13.89
2023-02-16T10:23:21.498Z,12.89
2023-02-16T10:24:20.912Z,13.39
2023-02-16T10:25:21.490Z,13.69
2023-02-16T10:26:21.473Z,13.5
2023-02-16T10:27:20.516Z,13.10
2023-02-16T10:28:22.724Z,13.89
2023-02-16T10:29:21.002Z,13.30
2023-02-16T10:30:22.693Z,12.80
2023-02-16T10:31:21.730Z,14
2023-02-16T10:32:21.677Z,14.30
2023-02-16T10:33:21.168Z,13.80
2023-02-16T10:34:23.145Z,14.5
2023-02-16T10:35:21.547Z,13.69
2023-02-16T10:37:21.909Z,13.60
2023-02-16T10:38:22.462Z,12.80
2023-02-16T10:39:21.434Z,12.5
2023-02-16T10:40:23.369Z,12.60
2023-02-16T10:41:22.006Z,12.30
2023-02-16T10:42:21.757Z,11.19
2023-02-16T10:43:21.623Z,11.10
2023-02-16T10:44:20.683Z,10.39
2023-02-16T10:45:21.124Z,10.30
2023-02-16T10:46:21.357Z,9.899
2023-02-16T10:47:22.183Z,10.39
2023-02-16T10:48:21.955Z,10.30
2023-02-16T10:49:21.197Z,9.399
2023-02-16T10:50:21.227Z,10
2023-02-16T10:51:21.416Z,10.19
2023-02-16T10:52:20.949Z,10.5
2023-02-16T10:53:21.750Z,9.800
2023-02-16T10:54:21.506Z,9.600
2023-02-16T10:55:21.428Z,10.19
2023-02-16T10:56:21.072Z,10.10
2023-02-16T10:57:21.206Z,10.19
2023-02-16T10:58:22.645Z,9.5
2023-02-16T10:59:21.356Z,9.800
2023-02-16T11:00:23.153Z,10.10
2023-02-16T11:01:22.727Z,10.19
2023-02-16T11:02:22.002Z,10.10
2023-02-16T11:03:22.130Z,9.600
2023-02-16T11:04:22.922Z,10
2023-02-16T11:06:21.242Z,10.30
2023-02-16T11:07:21.281Z,10.10
2023-02-16T11:08:20.898Z,9.899
2023-02-16T11:09:21.840Z,9.699
2023-02-16T11:11:22.891Z,9.600
2023-02-16T11:12:22.490Z,9.899
2023-02-16T11:13:21.820Z,10.39
2023-02-16T11:14:22.186Z,9.5
2023-02-16T11:15:22.758Z,10.30
2023-02-16T11:16:20.897Z,9.199
2023-02-16T11:17:21.734Z,9.699
2023-02-16T11:18:21.800Z,9.600
2023-02-16T11:19:22.185Z,9.899
2023-02-16T11:21:22.139Z,9.300
2023-02-16T11:22:20.754Z,9.899
2023-02-16T11:23:21.752Z,10
2023-02-16T11:24:21.743Z,9.5
2023-02-16T11:25:22.061Z,10.60
2023-02-16T11:26:21.701Z,9.600
2023-02-16T11:27:21.100Z,9.399
2023-02-16T11:29:20.996Z,10.10
2023-02-16T11:30:21.775Z,10
2023-02-16T11:31:21.670Z,9.699
2023-02-16T11:32:21.649Z,9.800
2023-02-16T11:33:21.917Z,9.5
2023-02-16T11:34:21.312Z,10
2023-02-16T11:35:21.833Z,10.80
2023-02-16T11:36:21.909Z,9.399
2023-02-16T11:37:21.850Z,9.5
2023-02-16T11:38:21.994Z,9.399
2023-02-16T11:39:21.742Z,9.899
2023-02-16T11:40:21.555Z,9.399
2023-02-16T11:41:21.986Z,9.800
2023-02-16T11:43:21.914Z,9.699
2023-02-16T11:44:21.433Z,9.5
2023-02-16T11:45:21.541Z,9.600
2023-02-16T11:46:22.139Z,9.399
2023-02-16T11:47:21.841Z,8.899
2023-02-16T11:48:21.581Z,9.399
2023-02-16T11:49:21.537Z,9.600
2023-02-16T11:51:20.916Z,8.899
2023-02-16T11:52:22.268Z,8.699
2023-02-16T11:53:21.383Z,9.600
2023-02-16T11:54:21.810Z,9
2023-02-16T11:55:21.538Z,9.600
2023-02-16T11:56:21.297Z,9.5
2023-02-16T11:57:26.425Z,10
2023-02-16T11:58:21.407Z,8.699
2023-02-16T11:59:21.643Z,10.39
2023-02-16T12:00:22.816Z,10.10
2023-02-16T12:01:22.145Z,9.100
2023-02-16T12:02:20.847Z,10.10
2023-02-16T12:03:22.132Z,9.899
2023-02-16T12:04:22.092Z,9.199
2023-02-16T12:06:21.889Z,10.10
2023-02-16T12:07:22.620Z,9.800
2023-02-16T12:08:22.056Z,10.39
2023-02-16T12:09:20.989Z,9.899
2023-02-16T12:10:21.508Z,9.5
2023-02-16T12:11:21.282Z,10.19
2023-02-16T12:12:22.545Z,9.399
2023-02-16T12:13:21.828Z,10.30
2023-02-16T12:14:21.804Z,9.699
2023-02-16T12:15:22.030Z,10.39
2023-02-16T12:16:22.245Z,9.800
2023-02-16T12:17:21.392Z,10.10
2023-02-16T12:19:22.280Z,10.5
2023-02-16T12:20:22.001Z,10.19
2023-02-16T12:21:21.906Z,10
2023-02-16T12:22:22.310Z,9.600
2023-02-16T12:23:21.989Z,10.10
2023-02-16T12:24:21.493Z,9.899
2023-02-16T12:25:22.192Z,9.800
2023-02-16T12:26:22.992Z,10.39
2023-02-16T12:27:22.604Z,10
2023-02-16T12:28:23.154Z,9.5
2023-02-16T12:29:21.395Z,9.100
2023-02-16T12:30:22.811Z,9.399
2023-02-16T12:31:41.189Z,9.199
2023-02-16T12:32:21.252Z,9.300
2023-02-16T12:33:22.133Z,9.699
2023-02-16T12:34:21.973Z,9.399
2023-02-16T12:35:22.465Z,10.89
2023-02-16T12:36:21.304Z,9.699
2023-02-16T12:37:21.044Z,10
2023-02-16T12:38:21.743Z,9.800
2023-02-16T12:39:22.197Z,9.600
2023-02-16T12:40:21.786Z,9.699
2023-02-16T12:41:22.104Z,9.600
2023-02-16T12:42:22.297Z,9.800
2023-02-16T12:44:21.754Z,10.30
2023-02-16T12:45:22.395Z,10.19
2023-02-16T12:46:23.898Z,9.800
2023-02-16T12:47:21.683Z,10.39
2023-02-16T12:48:21.452Z,10.10
2023-02-16T12:50:22.284Z,10.30
2023-02-16T12:51:21.539Z,10.10
2023-02-16T12:52:21.976Z,10.30
2023-02-16T12:53:22.092Z,9.899
2023-02-16T12:54:24.599Z,9.699
2023-02-16T12:55:22.182Z,10
2023-02-16T12:56:21.464Z,9.5
2023-02-16T12:57:21.658Z,9.800
2023-02-16T12:58:21.524Z,9.600
2023-02-16T12:59:21.104Z,8.899
2023-02-16T13:00:23.445Z,9.199
2023-02-16T13:01:22.445Z,9.300
2023-02-16T13:02:21.817Z,10
2023-02-16T13:03:21.890Z,9.600
2023-02-16T13:04:21.451Z,10
2023-02-16T13:05:21.907Z,8.5
2023-02-16T13:06:21.398Z,9.199
2023-02-16T13:07:22.138Z,8.5
2023-02-16T13:08:21.776Z,9.199
2023-02-16T13:09:21.681Z,9
2023-02-16T13:10:22.434Z,8.699
2023-02-16T13:11:22.153Z,8.199
2023-02-16T13:12:21.634Z,9.600
2023-02-16T13:13:22.012Z,8.699
2023-02-16T13:14:21.782Z,9.600
2023-02-16T13:16:30.079Z,9
2023-02-16T13:17:22.440Z,9.300
2023-02-16T13:18:22.005Z,8.399
2023-02-16T13:19:21.811Z,8.800
2023-02-16T13:20:22.911Z,8.199
2023-02-16T13:21:21.965Z,8.699
2023-02-16T13:22:22.105Z,8.300
2023-02-16T13:23:21.662Z,9.100
2023-02-16T13:25:22.581Z,9
2023-02-16T13:26:22.505Z,9.300
2023-02-16T13:27:21.480Z,8.5
2023-02-16T13:28:22.514Z,9.199
2023-02-16T13:29:21.890Z,9.300
2023-02-16T13:30:22.190Z,8.899
2023-02-16T13:31:22.589Z,9.199
2023-02-16T13:32:22.786Z,8.699
2023-02-16T13:33:22.139Z,9.199
2023-02-16T13:34:21.733Z,9.300
2023-02-16T13:35:21.556Z,8.699
2023-02-16T13:36:22.271Z,9.199
2023-02-16T13:37:21.829Z,8.800
2023-02-16T13:38:21.598Z,9
2023-02-16T13:39:21.671Z,8.899
2023-02-16T13:40:21.506Z,9.199
2023-02-16T13:42:22.086Z,9.399
2023-02-16T13:43:21.808Z,8.699
2023-02-16T13:44:21.611Z,8.899
2023-02-16T13:45:22.234Z,8.5
2023-02-16T13:46:21.685Z,8
2023-02-16T13:47:21.762Z,7.699
2023-02-16T13:48:21.686Z,8.199
2023-02-16T13:49:21.746Z,8.699
2023-02-16T13:50:21.927Z,8.5
2023-02-16T13:51:21.746Z,8.100
2023-02-16T13:52:21.430Z,7.699
2023-02-16T13:53:21.420Z,8.100
2023-02-16T13:55:21.315Z,7.5
2023-02-16T13:56:21.095Z,7.199
2023-02-16T13:57:22.292Z,7.300
2023-02-16T13:58:21.635Z,7.599
2023-02-16T13:59:21.239Z,7.699
2023-02-16T14:00:22.839Z,7.5
2023-02-16T14:01:22.032Z,7.199